Wildwood, New York
Current Conditions -  °F | °C
As of 6:56 AM on Thursday 23 Oct 2014 (Local Time) from KHWV Reporting Station
Overcast Overcast  
Wind Chill: 51°   Ceiling: 1800
Heat Index: 51°   Visibility: 10mi
Dew Point: 48°   Wind: 14mph
Humidity: 89%   Direction: 350°N
Pressure: 29.63"   Gusts: NA
Location:  40.953°N, 72.8286°W
Report Text: KHWV 231056Z AUTO 35012KT 10SM OVC018 11/09 A2963 RMK AO2 RAB02E49 SLP032 P0001 T01060089 TSNO $
Loading
Personal Weather Stations






























Interactive Weather Map
Tropical Storm Tracking
New forecast layout! Learn more

10-Day Weather Forecast

Advertisements
Track Severe Weather on mobile